• Join FlightAware (Why Join?)
  • Login
  • US Flag 
09:24AM EST


 

Airport Tracker/Info


-or-


 

Live Flight TrackerFlight Track Log ✈ LIA553 ✈ 13-May-2013 ✈ TIST / STT - TQPF / AXA

Flight Track Log - Related Links

Times and Time Zones

All times are in EDT time to prevent confusion due to time zone crossing. See the LIA553 flight status page for this flight to view local times or setup timezone preferences in your user account.

Time Position Orientation Groundspeed Altitude Reporting Facility
EDT Latitude Longitude Course Direction KTS MPH feet Rate Location/Type
01:41PM 18.3167 -64.9333 66° East 130 150 1,400  Level San Juan Center
01:42PM 18.3167 -64.9000 90° East 120 138 3,100 1,560 Climbing San Juan Center
01:43PM 18.3167 -64.8667 90° East 140 161 4,600 1,500 Climbing San Juan Center
01:44PM 18.3167 -64.8167 90° East 150 173 6,100 1,200 Climbing San Juan Center
01:45PM 18.3167 -64.7667 90° East 190 219 7,100 1,200 Climbing San Juan Center
01:46PM 18.3167 -64.7000 90° East 190 219 8,600 900 Climbing San Juan Center
01:47PM 18.4301 -64.7909 66° East  Level FlightAware Approximate
01:47PM 18.3333 -64.6500 71° East 210 242 9,000  Level San Juan Center
01:48PM 18.3333 -64.5667 90° East 260 299 9,000  Level San Juan Center
01:49PM 18.3333 -64.5000 90° East 260 299 9,000  Level San Juan Center
01:50PM 18.3333 -64.4167 90° East 260 299 9,000  Level San Juan Center
01:51PM 18.3500 -64.3500 75° East 260 299 9,000  Level San Juan Center
01:52PM 18.3500 -64.2667 90° East 270 311 9,000  Level San Juan Center
01:53PM 18.3500 -64.1833 90° East 260 299 9,000  Level San Juan Center
01:54PM 18.3500 -64.1000 90° East 260 299 9,000  Level San Juan Center
01:55PM 18.3500 -64.0333 90° East 260 299 9,000  Level San Juan Center
01:56PM 18.3667 -63.9500 78° East 260 299 9,000  Level San Juan Center
01:57PM 18.3667 -63.8833 90° East 270 311 9,100  Climbing San Juan Center
01:58PM 18.3667 -63.8000 90° East 270 311 9,100  Level San Juan Center
02:00PM 18.3667 -63.7079 90° East  Level FlightAware Approximate
02:07PM 18.2385 -63.1713 113° Southeast  Level FlightAware Approximate
02:08PM 18.2075 -63.0983 118° Southeast  Level FlightAware Approximate
02:09PM 18.2000 -63.0500 90° East  Level FlightAware Approximate
02:10PM 18.2048 -63.0551 90° East  Level Estimated
02:11PM 18.2000 -63.0500 90° East  Level FlightAware Approximate
02:12PM 18.2048 -63.0551 90° East  Level Estimated
02:13PM 18.2000 -63.0500 90° East  Level FlightAware Approximate
02:14PM 18.2048 -63.0551 90° East  Level Estimated
02:15PM 18.2000 -63.0500 90° East  Level FlightAware Approximate
02:16PM 18.2048 -63.0551 90° East  Level Estimated
02:17PM 18.2000 -63.0500 90° East  Level FlightAware Approximate
02:18PM 18.2048 -63.0551 90° East  Level Estimated
02:19PM 18.2000 -63.0500 90° East  Level FlightAware Approximate
02:20PM 18.2048 -63.0551 90° East  Level Estimated
02:21PM 18.2000 -63.0500 90° East  Level FlightAware Approximate
02:22PM 18.2048 -63.0551 90° East  Level Estimated
02:23PM 18.2000 -63.0500 90° East  Level FlightAware Approximate
02:24PM 18.2048 -63.0551 90° East  Level Estimated
02:25PM 18.2000 -63.0500 90° East  Level FlightAware Approximate
02:26PM 18.2048 -63.0551 90° East  Level Estimated